sensor_id;sensor_type;location;lat;lon;timestamp;P1;durP1;ratioP1;P2;durP2;ratioP2
47167;SDS011;32931;47.778;17.806;2024-03-02T00:00:21;285.40;;;24.42;;
47167;SDS011;32931;47.778;17.806;2024-03-02T00:02:50;149.27;;;24.50;;
47167;SDS011;32931;47.778;17.806;2024-03-02T00:05:19;40.35;;;22.92;;
47167;SDS011;32931;47.778;17.806;2024-03-02T00:07:52;34.05;;;22.90;;
47167;SDS011;32931;47.778;17.806;2024-03-02T00:10:26;94.60;;;28.65;;
47167;SDS011;32931;47.778;17.806;2024-03-02T00:12:57;200.15;;;30.35;;
47167;SDS011;32931;47.778;17.806;2024-03-02T00:17:55;257.75;;;34.22;;
47167;SDS011;32931;47.778;17.806;2024-03-02T00:20:22;204.85;;;29.92;;
47167;SDS011;32931;47.778;17.806;2024-03-02T00:22:49;99.88;;;31.35;;
47167;SDS011;32931;47.778;17.806;2024-03-02T00:25:16;101.80;;;30.27;;
47167;SDS011;32931;47.778;17.806;2024-03-02T00:27:46;49.20;;;29.58;;
47167;SDS011;32931;47.778;17.806;2024-03-02T00:33:02;111.70;;;29.73;;
47167;SDS011;32931;47.778;17.806;2024-03-02T00:35:34;131.48;;;29.33;;
47167;SDS011;32931;47.778;17.806;2024-03-02T00:38:04;93.43;;;31.00;;
47167;SDS011;32931;47.778;17.806;2024-03-02T00:40:31;98.57;;;26.42;;
47167;SDS011;32931;47.778;17.806;2024-03-02T00:42:58;145.05;;;27.50;;
47167;SDS011;32931;47.778;17.806;2024-03-02T00:45:25;37.10;;;25.25;;
47167;SDS011;32931;47.778;17.806;2024-03-02T00:47:51;29.95;;;22.63;;
47167;SDS011;32931;47.778;17.806;2024-03-02T00:50:18;27.02;;;20.35;;
47167;SDS011;32931;47.778;17.806;2024-03-02T00:52:45;22.98;;;18.25;;
47167;SDS011;32931;47.778;17.806;2024-03-02T00:55:14;21.60;;;16.65;;
47167;SDS011;32931;47.778;17.806;2024-03-02T00:57:40;20.05;;;16.60;;
47167;SDS011;32931;47.778;17.806;2024-03-02T01:00:06;23.25;;;17.42;;
47167;SDS011;32931;47.778;17.806;2024-03-02T01:02:35;26.85;;;18.80;;
47167;SDS011;32931;47.778;17.806;2024-03-02T01:05:01;29.88;;;18.58;;
47167;SDS011;32931;47.778;17.806;2024-03-02T01:07:28;38.75;;;18.23;;
47167;SDS011;32931;47.778;17.806;2024-03-02T01:09:54;25.23;;;17.80;;
47167;SDS011;32931;47.778;17.806;2024-03-02T01:12:20;75.10;;;18.75;;
47167;SDS011;32931;47.778;17.806;2024-03-02T01:14:46;95.22;;;18.63;;
47167;SDS011;32931;47.778;17.806;2024-03-02T01:17:12;104.28;;;19.30;;
47167;SDS011;32931;47.778;17.806;2024-03-02T01:19:39;40.50;;;19.48;;
47167;SDS011;32931;47.778;17.806;2024-03-02T01:22:07;29.85;;;19.13;;
47167;SDS011;32931;47.778;17.806;2024-03-02T01:24:33;30.02;;;19.45;;
47167;SDS011;32931;47.778;17.806;2024-03-02T01:26:59;36.95;;;19.20;;
47167;SDS011;32931;47.778;17.806;2024-03-02T01:29:25;26.48;;;18.25;;
47167;SDS011;32931;47.778;17.806;2024-03-02T01:31:51;26.17;;;17.88;;
47167;SDS011;32931;47.778;17.806;2024-03-02T01:34:19;41.25;;;21.77;;
47167;SDS011;32931;47.778;17.806;2024-03-02T01:36:46;31.38;;;21.23;;
47167;SDS011;32931;47.778;17.806;2024-03-02T01:39:12;32.47;;;20.90;;
47167;SDS011;32931;47.778;17.806;2024-03-02T01:41:38;47.30;;;22.30;;
47167;SDS011;32931;47.778;17.806;2024-03-02T01:44:04;43.75;;;23.02;;
47167;SDS011;32931;47.778;17.806;2024-03-02T01:46:30;96.45;;;21.55;;
47167;SDS011;32931;47.778;17.806;2024-03-02T01:48:56;62.67;;;20.40;;
47167;SDS011;32931;47.778;17.806;2024-03-02T01:51:22;54.00;;;18.42;;
47167;SDS011;32931;47.778;17.806;2024-03-02T01:53:49;22.77;;;17.85;;
47167;SDS011;32931;47.778;17.806;2024-03-02T01:56:15;26.45;;;17.08;;
47167;SDS011;32931;47.778;17.806;2024-03-02T01:58:41;41.97;;;17.95;;
47167;SDS011;32931;47.778;17.806;2024-03-02T02:01:08;29.02;;;19.83;;
47167;SDS011;32931;47.778;17.806;2024-03-02T02:03:35;24.27;;;18.10;;
47167;SDS011;32931;47.778;17.806;2024-03-02T02:06:02;35.63;;;24.48;;
47167;SDS011;32931;47.778;17.806;2024-03-02T02:08:28;51.92;;;29.85;;
47167;SDS011;32931;47.778;17.806;2024-03-02T02:10:55;61.92;;;29.05;;
47167;SDS011;32931;47.778;17.806;2024-03-02T02:13:21;42.88;;;27.48;;
47167;SDS011;32931;47.778;17.806;2024-03-02T02:15:47;34.30;;;23.63;;
47167;SDS011;32931;47.778;17.806;2024-03-02T02:18:13;38.90;;;23.92;;
47167;SDS011;32931;47.778;17.806;2024-03-02T02:20:39;90.53;;;20.38;;
47167;SDS011;32931;47.778;17.806;2024-03-02T02:23:05;84.63;;;18.55;;
47167;SDS011;32931;47.778;17.806;2024-03-02T02:25:33;114.85;;;20.58;;
47167;SDS011;32931;47.778;17.806;2024-03-02T02:27:59;63.17;;;20.95;;
47167;SDS011;32931;47.778;17.806;2024-03-02T02:30:29;58.25;;;21.25;;
47167;SDS011;32931;47.778;17.806;2024-03-02T02:32:57;74.20;;;23.38;;
47167;SDS011;32931;47.778;17.806;2024-03-02T02:35:24;185.77;;;23.77;;
47167;SDS011;32931;47.778;17.806;2024-03-02T02:37:50;147.75;;;20.63;;
47167;SDS011;32931;47.778;17.806;2024-03-02T02:40:17;321.48;;;25.20;;
47167;SDS011;32931;47.778;17.806;2024-03-02T02:42:47;42.45;;;24.08;;
47167;SDS011;32931;47.778;17.806;2024-03-02T02:45:13;54.78;;;23.02;;
47167;SDS011;32931;47.778;17.806;2024-03-02T02:47:40;75.57;;;23.35;;
47167;SDS011;32931;47.778;17.806;2024-03-02T02:50:07;32.95;;;22.70;;
47167;SDS011;32931;47.778;17.806;2024-03-02T02:52:34;33.15;;;23.02;;
47167;SDS011;32931;47.778;17.806;2024-03-02T02:55:05;30.88;;;22.90;;
47167;SDS011;32931;47.778;17.806;2024-03-02T02:57:32;38.85;;;26.17;;
47167;SDS011;32931;47.778;17.806;2024-03-02T03:02:40;46.67;;;25.52;;
47167;SDS011;32931;47.778;17.806;2024-03-02T03:05:10;137.00;;;24.88;;
47167;SDS011;32931;47.778;17.806;2024-03-02T03:07:39;58.17;;;23.33;;
47167;SDS011;32931;47.778;17.806;2024-03-02T03:10:06;35.22;;;20.90;;
47167;SDS011;32931;47.778;17.806;2024-03-02T03:12:33;61.08;;;21.30;;
47167;SDS011;32931;47.778;17.806;2024-03-02T03:15:00;32.60;;;20.73;;
47167;SDS011;32931;47.778;17.806;2024-03-02T03:17:26;59.70;;;19.98;;
47167;SDS011;32931;47.778;17.806;2024-03-02T03:19:53;49.50;;;19.92;;
47167;SDS011;32931;47.778;17.806;2024-03-02T03:22:20;56.35;;;20.35;;
47167;SDS011;32931;47.778;17.806;2024-03-02T03:24:46;92.32;;;21.95;;
47167;SDS011;32931;47.778;17.806;2024-03-02T03:27:12;88.47;;;20.95;;
47167;SDS011;32931;47.778;17.806;2024-03-02T03:29:38;56.63;;;21.83;;
47167;SDS011;32931;47.778;17.806;2024-03-02T03:32:04;93.22;;;23.05;;
47167;SDS011;32931;47.778;17.806;2024-03-02T03:34:32;40.17;;;23.58;;
47167;SDS011;32931;47.778;17.806;2024-03-02T03:36:59;30.95;;;24.50;;
47167;SDS011;32931;47.778;17.806;2024-03-02T03:39:25;31.50;;;23.80;;
47167;SDS011;32931;47.778;17.806;2024-03-02T03:41:51;32.58;;;22.05;;
47167;SDS011;32931;47.778;17.806;2024-03-02T03:44:17;28.10;;;21.48;;
47167;SDS011;32931;47.778;17.806;2024-03-02T03:46:43;29.35;;;23.38;;
47167;SDS011;32931;47.778;17.806;2024-03-02T03:49:09;31.08;;;23.95;;
47167;SDS011;32931;47.778;17.806;2024-03-02T03:51:36;32.92;;;24.17;;
47167;SDS011;32931;47.778;17.806;2024-03-02T03:54:02;37.25;;;25.95;;
47167;SDS011;32931;47.778;17.806;2024-03-02T03:56:29;38.47;;;24.98;;
47167;SDS011;32931;47.778;17.806;2024-03-02T03:58:55;33.17;;;24.65;;
47167;SDS011;32931;47.778;17.806;2024-03-02T04:01:21;44.78;;;27.85;;
47167;SDS011;32931;47.778;17.806;2024-03-02T04:03:48;40.63;;;27.73;;
47167;SDS011;32931;47.778;17.806;2024-03-02T04:06:14;42.70;;;27.20;;
47167;SDS011;32931;47.778;17.806;2024-03-02T04:08:42;38.35;;;27.40;;
47167;SDS011;32931;47.778;17.806;2024-03-02T04:11:08;34.22;;;26.30;;
47167;SDS011;32931;47.778;17.806;2024-03-02T04:13:34;36.60;;;27.02;;
47167;SDS011;32931;47.778;17.806;2024-03-02T04:16:00;36.47;;;25.40;;
47167;SDS011;32931;47.778;17.806;2024-03-02T04:18:27;37.33;;;26.00;;
47167;SDS011;32931;47.778;17.806;2024-03-02T04:20:53;32.72;;;24.98;;
47167;SDS011;32931;47.778;17.806;2024-03-02T04:23:19;35.15;;;24.23;;
47167;SDS011;32931;47.778;17.806;2024-03-02T04:25:45;36.05;;;25.27;;
47167;SDS011;32931;47.778;17.806;2024-03-02T04:28:11;34.60;;;24.45;;
47167;SDS011;32931;47.778;17.806;2024-03-02T04:30:38;38.13;;;25.98;;
47167;SDS011;32931;47.778;17.806;2024-03-02T04:33:04;71.53;;;43.72;;
47167;SDS011;32931;47.778;17.806;2024-03-02T04:35:32;49.97;;;34.65;;
47167;SDS011;32931;47.778;17.806;2024-03-02T04:37:59;66.28;;;48.42;;
47167;SDS011;32931;47.778;17.806;2024-03-02T04:40:25;37.53;;;28.42;;
47167;SDS011;32931;47.778;17.806;2024-03-02T04:42:51;36.35;;;27.67;;
47167;SDS011;32931;47.778;17.806;2024-03-02T04:45:18;40.22;;;28.98;;
47167;SDS011;32931;47.778;17.806;2024-03-02T04:47:44;37.83;;;25.67;;
47167;SDS011;32931;47.778;17.806;2024-03-02T04:50:10;39.70;;;28.02;;
47167;SDS011;32931;47.778;17.806;2024-03-02T04:52:36;38.58;;;26.48;;
47167;SDS011;32931;47.778;17.806;2024-03-02T04:55:03;38.08;;;26.90;;
47167;SDS011;32931;47.778;17.806;2024-03-02T04:57:36;39.97;;;25.33;;
47167;SDS011;32931;47.778;17.806;2024-03-02T05:00:03;38.63;;;27.60;;
47167;SDS011;32931;47.778;17.806;2024-03-02T05:02:32;36.75;;;26.35;;
47167;SDS011;32931;47.778;17.806;2024-03-02T05:04:58;35.60;;;26.20;;
47167;SDS011;32931;47.778;17.806;2024-03-02T05:07:24;40.90;;;27.20;;
47167;SDS011;32931;47.778;17.806;2024-03-02T05:09:50;37.97;;;26.60;;
47167;SDS011;32931;47.778;17.806;2024-03-02T05:12:17;41.72;;;29.08;;
47167;SDS011;32931;47.778;17.806;2024-03-02T05:15:01;41.13;;;27.48;;
47167;SDS011;32931;47.778;17.806;2024-03-02T05:17:28;44.47;;;28.73;;
47167;SDS011;32931;47.778;17.806;2024-03-02T05:19:54;42.97;;;27.83;;
47167;SDS011;32931;47.778;17.806;2024-03-02T05:22:20;45.47;;;29.02;;
47167;SDS011;32931;47.778;17.806;2024-03-02T05:24:46;46.10;;;28.75;;
47167;SDS011;32931;47.778;17.806;2024-03-02T05:27:12;45.25;;;29.30;;
47167;SDS011;32931;47.778;17.806;2024-03-02T05:29:38;43.58;;;29.13;;
47167;SDS011;32931;47.778;17.806;2024-03-02T05:32:04;39.88;;;27.88;;
47167;SDS011;32931;47.778;17.806;2024-03-02T05:34:31;43.75;;;29.20;;
47167;SDS011;32931;47.778;17.806;2024-03-02T05:36:58;41.63;;;28.17;;
47167;SDS011;32931;47.778;17.806;2024-03-02T05:39:24;42.97;;;28.20;;
47167;SDS011;32931;47.778;17.806;2024-03-02T05:41:50;41.47;;;29.90;;
47167;SDS011;32931;47.778;17.806;2024-03-02T05:44:16;45.30;;;30.15;;
47167;SDS011;32931;47.778;17.806;2024-03-02T05:46:44;47.38;;;28.88;;
47167;SDS011;32931;47.778;17.806;2024-03-02T05:49:10;48.20;;;31.08;;
47167;SDS011;32931;47.778;17.806;2024-03-02T05:51:36;46.25;;;30.50;;
47167;SDS011;32931;47.778;17.806;2024-03-02T05:54:02;134.35;;;81.93;;
47167;SDS011;32931;47.778;17.806;2024-03-02T05:56:29;65.90;;;41.13;;
47167;SDS011;32931;47.778;17.806;2024-03-02T05:58:55;63.53;;;40.10;;
47167;SDS011;32931;47.778;17.806;2024-03-02T06:01:39;66.35;;;40.25;;
47167;SDS011;32931;47.778;17.806;2024-03-02T06:04:07;59.08;;;37.88;;
47167;SDS011;32931;47.778;17.806;2024-03-02T06:06:33;60.60;;;38.60;;
47167;SDS011;32931;47.778;17.806;2024-03-02T06:09:03;59.67;;;39.60;;
47167;SDS011;32931;47.778;17.806;2024-03-02T06:11:39;67.00;;;41.15;;
47167;SDS011;32931;47.778;17.806;2024-03-02T06:14:07;60.20;;;38.10;;
47167;SDS011;32931;47.778;17.806;2024-03-02T06:16:33;52.60;;;36.85;;
47167;SDS011;32931;47.778;17.806;2024-03-02T06:19:00;59.22;;;36.92;;
47167;SDS011;32931;47.778;17.806;2024-03-02T06:21:27;58.97;;;36.72;;
47167;SDS011;32931;47.778;17.806;2024-03-02T06:23:53;60.30;;;36.70;;
47167;SDS011;32931;47.778;17.806;2024-03-02T06:26:19;63.47;;;38.47;;
47167;SDS011;32931;47.778;17.806;2024-03-02T06:28:46;68.00;;;41.85;;
47167;SDS011;32931;47.778;17.806;2024-03-02T06:31:12;69.88;;;48.22;;
47167;SDS011;32931;47.778;17.806;2024-03-02T06:33:38;69.95;;;48.85;;
47167;SDS011;32931;47.778;17.806;2024-03-02T06:36:05;63.80;;;41.50;;
47167;SDS011;32931;47.778;17.806;2024-03-02T06:38:35;62.88;;;40.88;;
47167;SDS011;32931;47.778;17.806;2024-03-02T06:41:01;62.65;;;40.85;;
47167;SDS011;32931;47.778;17.806;2024-03-02T06:43:27;61.45;;;41.47;;
47167;SDS011;32931;47.778;17.806;2024-03-02T06:45:53;59.50;;;40.53;;
47167;SDS011;32931;47.778;17.806;2024-03-02T06:48:20;63.88;;;40.35;;
47167;SDS011;32931;47.778;17.806;2024-03-02T06:50:46;62.30;;;41.20;;
47167;SDS011;32931;47.778;17.806;2024-03-02T06:53:16;62.78;;;39.83;;
47167;SDS011;32931;47.778;17.806;2024-03-02T06:55:43;60.90;;;39.08;;
47167;SDS011;32931;47.778;17.806;2024-03-02T06:58:13;60.78;;;38.28;;
47167;SDS011;32931;47.778;17.806;2024-03-02T07:00:42;65.65;;;39.05;;
47167;SDS011;32931;47.778;17.806;2024-03-02T07:03:09;63.60;;;39.22;;
47167;SDS011;32931;47.778;17.806;2024-03-02T07:05:35;56.45;;;37.28;;
47167;SDS011;32931;47.778;17.806;2024-03-02T07:08:02;66.57;;;37.83;;
47167;SDS011;32931;47.778;17.806;2024-03-02T07:10:29;67.90;;;38.42;;
47167;SDS011;32931;47.778;17.806;2024-03-02T07:12:55;62.70;;;37.30;;
47167;SDS011;32931;47.778;17.806;2024-03-02T07:15:21;62.70;;;36.08;;
47167;SDS011;32931;47.778;17.806;2024-03-02T07:18:03;57.10;;;35.75;;
47167;SDS011;32931;47.778;17.806;2024-03-02T07:20:30;57.35;;;35.25;;
47167;SDS011;32931;47.778;17.806;2024-03-02T07:22:56;60.13;;;36.33;;
47167;SDS011;32931;47.778;17.806;2024-03-02T07:25:22;59.00;;;36.30;;
47167;SDS011;32931;47.778;17.806;2024-03-02T07:27:48;62.80;;;36.20;;
47167;SDS011;32931;47.778;17.806;2024-03-02T07:30:15;61.17;;;36.92;;
47167;SDS011;32931;47.778;17.806;2024-03-02T07:32:44;61.45;;;36.28;;
47167;SDS011;32931;47.778;17.806;2024-03-02T07:35:14;60.65;;;36.42;;
47167;SDS011;32931;47.778;17.806;2024-03-02T07:37:43;55.75;;;36.55;;
47167;SDS011;32931;47.778;17.806;2024-03-02T07:40:10;57.55;;;35.90;;
47167;SDS011;32931;47.778;17.806;2024-03-02T07:42:38;59.53;;;35.35;;
47167;SDS011;32931;47.778;17.806;2024-03-02T07:45:05;60.35;;;36.72;;
47167;SDS011;32931;47.778;17.806;2024-03-02T07:47:34;58.85;;;34.90;;
47167;SDS011;32931;47.778;17.806;2024-03-02T07:50:01;58.60;;;36.25;;
47167;SDS011;32931;47.778;17.806;2024-03-02T07:52:27;68.68;;;37.97;;
47167;SDS011;32931;47.778;17.806;2024-03-02T07:54:53;69.75;;;40.83;;
47167;SDS011;32931;47.778;17.806;2024-03-02T07:57:19;56.70;;;38.45;;
47167;SDS011;32931;47.778;17.806;2024-03-02T07:59:45;64.03;;;39.08;;
47167;SDS011;32931;47.778;17.806;2024-03-02T08:02:12;65.93;;;41.50;;
47167;SDS011;32931;47.778;17.806;2024-03-02T08:04:38;71.63;;;47.38;;
47167;SDS011;32931;47.778;17.806;2024-03-02T08:07:04;70.88;;;43.53;;
47167;SDS011;32931;47.778;17.806;2024-03-02T08:09:31;66.30;;;45.67;;
47167;SDS011;32931;47.778;17.806;2024-03-02T08:11:57;61.40;;;41.53;;
47167;SDS011;32931;47.778;17.806;2024-03-02T08:14:26;69.63;;;43.10;;
47167;SDS011;32931;47.778;17.806;2024-03-02T08:16:52;66.55;;;40.83;;
47167;SDS011;32931;47.778;17.806;2024-03-02T08:19:18;64.53;;;38.38;;
47167;SDS011;32931;47.778;17.806;2024-03-02T08:21:44;62.35;;;41.75;;
47167;SDS011;32931;47.778;17.806;2024-03-02T08:24:11;64.97;;;38.30;;
47167;SDS011;32931;47.778;17.806;2024-03-02T08:26:37;62.85;;;41.53;;
47167;SDS011;32931;47.778;17.806;2024-03-02T08:29:03;52.83;;;37.65;;
47167;SDS011;32931;47.778;17.806;2024-03-02T08:31:29;63.72;;;37.45;;
47167;SDS011;32931;47.778;17.806;2024-03-02T08:33:59;57.67;;;37.35;;
47167;SDS011;32931;47.778;17.806;2024-03-02T08:36:26;60.83;;;39.38;;
47167;SDS011;32931;47.778;17.806;2024-03-02T08:38:54;57.33;;;36.72;;
47167;SDS011;32931;47.778;17.806;2024-03-02T08:41:21;55.50;;;36.38;;
47167;SDS011;32931;47.778;17.806;2024-03-02T08:43:47;56.28;;;35.92;;
47167;SDS011;32931;47.778;17.806;2024-03-02T08:46:13;57.00;;;35.33;;
47167;SDS011;32931;47.778;17.806;2024-03-02T08:48:39;58.65;;;35.35;;
47167;SDS011;32931;47.778;17.806;2024-03-02T08:51:06;60.33;;;35.42;;
47167;SDS011;32931;47.778;17.806;2024-03-02T08:53:33;56.67;;;36.78;;
47167;SDS011;32931;47.778;17.806;2024-03-02T08:55:59;66.32;;;41.60;;
47167;SDS011;32931;47.778;17.806;2024-03-02T08:58:25;61.63;;;37.92;;
47167;SDS011;32931;47.778;17.806;2024-03-02T09:00:51;58.92;;;35.50;;
47167;SDS011;32931;47.778;17.806;2024-03-02T09:03:18;55.30;;;36.33;;
47167;SDS011;32931;47.778;17.806;2024-03-02T09:05:44;57.22;;;35.30;;
47167;SDS011;32931;47.778;17.806;2024-03-02T09:08:10;64.00;;;37.95;;
47167;SDS011;32931;47.778;17.806;2024-03-02T09:10:36;66.20;;;38.53;;
47167;SDS011;32931;47.778;17.806;2024-03-02T09:13:05;61.70;;;38.20;;
47167;SDS011;32931;47.778;17.806;2024-03-02T09:15:31;64.88;;;37.05;;
47167;SDS011;32931;47.778;17.806;2024-03-02T09:17:57;61.80;;;37.28;;
47167;SDS011;32931;47.778;17.806;2024-03-02T09:20:23;58.90;;;37.15;;
47167;SDS011;32931;47.778;17.806;2024-03-02T09:22:49;60.83;;;37.58;;
47167;SDS011;32931;47.778;17.806;2024-03-02T09:25:15;63.38;;;37.15;;
47167;SDS011;32931;47.778;17.806;2024-03-02T09:27:41;60.80;;;37.00;;
47167;SDS011;32931;47.778;17.806;2024-03-02T09:30:07;57.33;;;36.67;;
47167;SDS011;32931;47.778;17.806;2024-03-02T09:32:35;62.75;;;38.03;;
47167;SDS011;32931;47.778;17.806;2024-03-02T09:35:03;70.80;;;43.08;;
47167;SDS011;32931;47.778;17.806;2024-03-02T09:37:29;70.57;;;39.00;;
47167;SDS011;32931;47.778;17.806;2024-03-02T09:39:55;64.88;;;36.95;;
47167;SDS011;32931;47.778;17.806;2024-03-02T09:42:21;62.05;;;37.25;;
47167;SDS011;32931;47.778;17.806;2024-03-02T09:44:48;66.32;;;38.75;;
47167;SDS011;32931;47.778;17.806;2024-03-02T09:47:14;66.57;;;39.30;;
47167;SDS011;32931;47.778;17.806;2024-03-02T09:49:40;67.43;;;39.13;;
47167;SDS011;32931;47.778;17.806;2024-03-02T09:52:06;62.88;;;39.28;;
47167;SDS011;32931;47.778;17.806;2024-03-02T09:54:33;59.63;;;38.00;;
47167;SDS011;32931;47.778;17.806;2024-03-02T09:56:59;61.60;;;38.05;;
47167;SDS011;32931;47.778;17.806;2024-03-02T09:59:27;71.28;;;40.63;;
47167;SDS011;32931;47.778;17.806;2024-03-02T10:02:00;64.55;;;41.60;;
47167;SDS011;32931;47.778;17.806;2024-03-02T10:04:28;70.50;;;40.17;;
47167;SDS011;32931;47.778;17.806;2024-03-02T10:09:43;68.03;;;42.88;;
47167;SDS011;32931;47.778;17.806;2024-03-02T10:12:15;70.45;;;40.85;;
47167;SDS011;32931;47.778;17.806;2024-03-02T10:14:42;67.30;;;40.60;;
47167;SDS011;32931;47.778;17.806;2024-03-02T10:17:10;66.63;;;40.63;;
47167;SDS011;32931;47.778;17.806;2024-03-02T10:19:37;63.97;;;42.28;;
47167;SDS011;32931;47.778;17.806;2024-03-02T10:22:05;73.65;;;41.70;;
47167;SDS011;32931;47.778;17.806;2024-03-02T10:24:36;61.72;;;39.85;;
47167;SDS011;32931;47.778;17.806;2024-03-02T10:27:09;63.03;;;39.88;;
47167;SDS011;32931;47.778;17.806;2024-03-02T10:29:45;65.13;;;40.65;;
47167;SDS011;32931;47.778;17.806;2024-03-02T10:32:12;70.53;;;41.60;;
47167;SDS011;32931;47.778;17.806;2024-03-02T10:34:44;71.50;;;41.83;;
47167;SDS011;32931;47.778;17.806;2024-03-02T10:37:12;66.05;;;40.63;;
47167;SDS011;32931;47.778;17.806;2024-03-02T10:39:39;67.22;;;41.03;;
47167;SDS011;32931;47.778;17.806;2024-03-02T10:42:06;65.38;;;41.70;;
47167;SDS011;32931;47.778;17.806;2024-03-02T10:44:33;67.28;;;41.83;;
47167;SDS011;32931;47.778;17.806;2024-03-02T10:47:03;67.85;;;41.70;;
47167;SDS011;32931;47.778;17.806;2024-03-02T10:49:31;66.25;;;42.40;;
47167;SDS011;32931;47.778;17.806;2024-03-02T10:51:58;66.95;;;42.75;;
47167;SDS011;32931;47.778;17.806;2024-03-02T10:54:25;76.28;;;44.30;;
47167;SDS011;32931;47.778;17.806;2024-03-02T10:56:55;72.82;;;45.88;;
47167;SDS011;32931;47.778;17.806;2024-03-02T11:02:01;71.00;;;44.70;;
47167;SDS011;32931;47.778;17.806;2024-03-02T11:04:29;67.13;;;44.08;;
47167;SDS011;32931;47.778;17.806;2024-03-02T11:07:00;70.05;;;44.20;;
47167;SDS011;32931;47.778;17.806;2024-03-02T11:09:37;63.75;;;42.40;;
47167;SDS011;32931;47.778;17.806;2024-03-02T11:12:16;69.60;;;43.58;;
47167;SDS011;32931;47.778;17.806;2024-03-02T11:14:48;70.20;;;45.05;;
47167;SDS011;32931;47.778;17.806;2024-03-02T11:17:17;64.60;;;42.58;;
47167;SDS011;32931;47.778;17.806;2024-03-02T11:19:44;63.25;;;41.17;;
47167;SDS011;32931;47.778;17.806;2024-03-02T11:22:11;55.35;;;35.70;;
47167;SDS011;32931;47.778;17.806;2024-03-02T11:24:38;52.05;;;34.92;;
47167;SDS011;32931;47.778;17.806;2024-03-02T11:27:05;49.63;;;34.65;;
47167;SDS011;32931;47.778;17.806;2024-03-02T11:32:14;43.83;;;30.00;;
47167;SDS011;32931;47.778;17.806;2024-03-02T11:34:47;39.83;;;29.55;;
47167;SDS011;32931;47.778;17.806;2024-03-02T11:37:18;43.55;;;30.20;;
47167;SDS011;32931;47.778;17.806;2024-03-02T11:39:51;41.28;;;29.75;;
47167;SDS011;32931;47.778;17.806;2024-03-02T11:42:17;41.50;;;28.92;;
47167;SDS011;32931;47.778;17.806;2024-03-02T11:44:47;40.25;;;28.90;;
47167;SDS011;32931;47.778;17.806;2024-03-02T11:47:14;39.10;;;27.45;;
47167;SDS011;32931;47.778;17.806;2024-03-02T11:52:11;41.55;;;28.50;;
47167;SDS011;32931;47.778;17.806;2024-03-02T11:54:41;37.50;;;27.75;;
47167;SDS011;32931;47.778;17.806;2024-03-02T11:57:20;40.88;;;27.80;;
47167;SDS011;32931;47.778;17.806;2024-03-02T11:59:53;39.72;;;27.60;;
47167;SDS011;32931;47.778;17.806;2024-03-02T12:02:20;38.22;;;27.77;;
47167;SDS011;32931;47.778;17.806;2024-03-02T12:04:47;43.25;;;28.90;;
47167;SDS011;32931;47.778;17.806;2024-03-02T12:07:20;41.35;;;28.92;;
47167;SDS011;32931;47.778;17.806;2024-03-02T12:09:48;42.75;;;29.25;;
47167;SDS011;32931;47.778;17.806;2024-03-02T12:12:35;42.22;;;29.67;;
47167;SDS011;32931;47.778;17.806;2024-03-02T12:15:01;39.90;;;27.77;;
47167;SDS011;32931;47.778;17.806;2024-03-02T12:17:29;39.13;;;27.38;;
47167;SDS011;32931;47.778;17.806;2024-03-02T12:19:55;41.85;;;26.60;;
47167;SDS011;32931;47.778;17.806;2024-03-02T12:22:22;40.42;;;27.73;;
47167;SDS011;32931;47.778;17.806;2024-03-02T12:24:48;41.15;;;27.42;;
47167;SDS011;32931;47.778;17.806;2024-03-02T12:27:15;37.03;;;26.75;;
47167;SDS011;32931;47.778;17.806;2024-03-02T12:29:41;38.92;;;26.75;;
47167;SDS011;32931;47.778;17.806;2024-03-02T12:32:07;38.28;;;27.90;;
47167;SDS011;32931;47.778;17.806;2024-03-02T12:34:34;38.13;;;26.25;;
47167;SDS011;32931;47.778;17.806;2024-03-02T12:37:00;35.88;;;26.50;;
47167;SDS011;32931;47.778;17.806;2024-03-02T12:39:27;36.10;;;25.55;;
47167;SDS011;32931;47.778;17.806;2024-03-02T12:41:53;34.40;;;25.45;;
47167;SDS011;32931;47.778;17.806;2024-03-02T12:44:20;37.35;;;26.58;;
47167;SDS011;32931;47.778;17.806;2024-03-02T12:46:49;31.17;;;22.50;;
47167;SDS011;32931;47.778;17.806;2024-03-02T12:49:17;30.38;;;22.92;;
47167;SDS011;32931;47.778;17.806;2024-03-02T12:51:48;36.80;;;24.58;;
47167;SDS011;32931;47.778;17.806;2024-03-02T12:54:17;32.83;;;21.67;;
47167;SDS011;32931;47.778;17.806;2024-03-02T12:56:44;32.08;;;23.08;;
47167;SDS011;32931;47.778;17.806;2024-03-02T12:59:21;33.33;;;23.23;;
47167;SDS011;32931;47.778;17.806;2024-03-02T13:01:55;31.45;;;21.63;;
47167;SDS011;32931;47.778;17.806;2024-03-02T13:04:25;33.92;;;22.33;;
47167;SDS011;32931;47.778;17.806;2024-03-02T13:06:54;31.13;;;22.25;;
47167;SDS011;32931;47.778;17.806;2024-03-02T13:09:23;32.00;;;21.10;;
47167;SDS011;32931;47.778;17.806;2024-03-02T13:11:49;32.92;;;23.42;;
47167;SDS011;32931;47.778;17.806;2024-03-02T13:14:16;35.17;;;23.33;;
47167;SDS011;32931;47.778;17.806;2024-03-02T13:16:42;34.60;;;23.33;;
47167;SDS011;32931;47.778;17.806;2024-03-02T13:19:12;32.92;;;22.50;;
47167;SDS011;32931;47.778;17.806;2024-03-02T13:21:38;29.05;;;21.80;;
47167;SDS011;32931;47.778;17.806;2024-03-02T13:24:05;31.70;;;21.92;;
47167;SDS011;32931;47.778;17.806;2024-03-02T13:26:31;28.50;;;21.38;;
47167;SDS011;32931;47.778;17.806;2024-03-02T13:28:57;29.95;;;20.55;;
47167;SDS011;32931;47.778;17.806;2024-03-02T13:31:23;27.88;;;20.45;;
47167;SDS011;32931;47.778;17.806;2024-03-02T13:33:49;30.60;;;20.58;;
47167;SDS011;32931;47.778;17.806;2024-03-02T13:36:16;27.35;;;19.75;;
47167;SDS011;32931;47.778;17.806;2024-03-02T13:38:42;28.00;;;19.73;;
47167;SDS011;32931;47.778;17.806;2024-03-02T13:41:08;26.55;;;18.83;;
47167;SDS011;32931;47.778;17.806;2024-03-02T13:43:36;28.27;;;18.80;;
47167;SDS011;32931;47.778;17.806;2024-03-02T13:46:04;24.98;;;18.17;;
47167;SDS011;32931;47.778;17.806;2024-03-02T13:48:30;23.77;;;18.52;;
47167;SDS011;32931;47.778;17.806;2024-03-02T13:50:56;24.65;;;18.13;;
47167;SDS011;32931;47.778;17.806;2024-03-02T13:53:22;32.10;;;20.70;;
47167;SDS011;32931;47.778;17.806;2024-03-02T13:55:49;45.33;;;27.40;;
47167;SDS011;32931;47.778;17.806;2024-03-02T13:58:15;26.80;;;18.48;;
47167;SDS011;32931;47.778;17.806;2024-03-02T14:00:41;22.85;;;17.50;;
47167;SDS011;32931;47.778;17.806;2024-03-02T14:03:10;23.38;;;17.40;;
47167;SDS011;32931;47.778;17.806;2024-03-02T14:05:36;20.35;;;16.33;;
47167;SDS011;32931;47.778;17.806;2024-03-02T14:08:03;23.50;;;19.08;;
47167;SDS011;32931;47.778;17.806;2024-03-02T14:10:29;19.92;;;16.13;;
47167;SDS011;32931;47.778;17.806;2024-03-02T14:12:55;20.75;;;16.00;;
47167;SDS011;32931;47.778;17.806;2024-03-02T14:15:22;22.65;;;15.90;;
47167;SDS011;32931;47.778;17.806;2024-03-02T14:17:49;23.35;;;15.77;;
47167;SDS011;32931;47.778;17.806;2024-03-02T14:20:15;18.90;;;14.82;;
47167;SDS011;32931;47.778;17.806;2024-03-02T14:22:47;21.10;;;16.05;;
47167;SDS011;32931;47.778;17.806;2024-03-02T14:25:14;20.67;;;15.52;;
47167;SDS011;32931;47.778;17.806;2024-03-02T14:27:41;18.90;;;15.30;;